Time;durP1;ratioP1;P1;durP2;ratioP2;P2;SDS_P1;SDS_P2;PMS_P1;PMS_P2;Temp;Humidity;BMP_temperature;BMP_pressure;BME280_temperature;BME280_humidity;BME280_pressure;Samples;Min_cycle;Max_cycle;Signal;HPM_P1;HPM_P2
2022/01/29 00:00:01;;;;;;;22.25;7.22;;;7.90;99.90;;;;;;5005354;28;20068;-63
2022/01/29 00:02:26;;;;;;;32.13;7.85;;;7.90;99.90;;;;;;5008877;28;20430;-63
2022/01/29 00:04:52;;;;;;;22.48;6.05;;;7.90;99.90;;;;;;5008069;28;20100;-63
2022/01/29 00:07:17;;;;;;;19.42;6.15;;;7.90;99.90;;;;;;5010150;28;20120;-63
2022/01/29 00:09:44;;;;;;;29.38;8.05;;;7.90;99.90;;;;;;5009889;28;20104;-63
2022/01/29 00:12:10;;;;;;;35.85;9.38;;;8.00;99.90;;;;;;5010133;28;20053;-63
2022/01/29 00:14:36;;;;;;;32.25;7.28;;;8.00;99.90;;;;;;4993900;28;20050;-63
2022/01/29 00:17:03;;;;;;;27.73;8.45;;;8.00;99.90;;;;;;5001577;28;20488;-63
2022/01/29 00:19:28;;;;;;;30.00;7.93;;;8.00;99.90;;;;;;4999212;28;20043;-63
2022/01/29 00:21:54;;;;;;;28.15;7.50;;;8.00;99.90;;;;;;4990119;28;20049;-63
2022/01/29 00:24:20;;;;;;;21.88;6.68;;;8.00;99.90;;;;;;5009940;28;20457;-63
2022/01/29 00:26:45;;;;;;;31.05;7.68;;;8.00;99.90;;;;;;5004899;28;20046;-62
2022/01/29 00:29:19;;;;;;;23.77;7.07;;;8.00;99.90;;;;;;4990873;28;20050;-62
2022/01/29 00:31:44;;;;;;;25.35;7.95;;;8.00;99.90;;;;;;5002893;28;20041;-63
2022/01/29 00:34:10;;;;;;;25.33;6.88;;;8.00;99.90;;;;;;5007548;28;20045;-62
2022/01/29 00:36:35;;;;;;;24.80;8.10;;;8.00;99.90;;;;;;4990151;28;20046;-63
2022/01/29 00:39:01;;;;;;;38.38;7.57;;;8.00;99.90;;;;;;4999605;28;20037;-63
2022/01/29 00:41:26;;;;;;;22.73;6.63;;;8.00;99.90;;;;;;5010341;28;20394;-63
2022/01/29 00:43:52;;;;;;;17.73;6.20;;;8.00;99.90;;;;;;4992880;28;20045;-63
2022/01/29 00:46:17;;;;;;;30.60;8.18;;;8.00;99.90;;;;;;5002658;28;20448;-63
2022/01/29 00:48:43;;;;;;;18.08;7.50;;;8.10;99.90;;;;;;5002337;28;20344;-63
2022/01/29 00:51:08;;;;;;;21.23;6.43;;;8.10;99.90;;;;;;5001127;28;20224;-63
2022/01/29 00:53:34;;;;;;;22.42;6.75;;;8.10;99.90;;;;;;4996800;28;20050;-63
2022/01/29 00:56:05;;;;;;;19.17;6.82;;;8.10;99.90;;;;;;4998763;28;20035;-62
2022/01/29 00:58:30;;;;;;;24.42;7.38;;;8.10;99.90;;;;;;4997593;28;20410;-63
2022/01/29 01:00:56;;;;;;;19.13;7.35;;;8.10;99.90;;;;;;5004109;28;20046;-63
2022/01/29 01:03:21;;;;;;;15.98;6.45;;;8.10;99.90;;;;;;5004085;28;20031;-63
2022/01/29 01:05:47;;;;;;;27.67;7.75;;;8.10;99.90;;;;;;4991445;28;20069;-62
2022/01/29 01:08:13;;;;;;;23.50;6.88;;;8.10;99.90;;;;;;4992511;28;20026;-63
2022/01/29 01:10:38;;;;;;;29.38;8.05;;;8.10;99.90;;;;;;5008236;28;20481;-63
2022/01/29 01:13:04;;;;;;;24.35;8.70;;;8.20;99.90;;;;;;5009404;28;20549;-63
2022/01/29 01:15:30;;;;;;;21.02;8.10;;;8.20;99.90;;;;;;5009754;28;20041;-63
2022/01/29 01:17:55;;;;;;;29.27;8.43;;;8.20;99.90;;;;;;5007450;28;20057;-62
2022/01/29 01:20:21;;;;;;;21.35;7.47;;;8.20;99.90;;;;;;4992428;28;20061;-63
2022/01/29 01:22:46;;;;;;;34.30;9.15;;;8.20;99.90;;;;;;5006614;28;20121;-62
2022/01/29 01:25:12;;;;;;;25.42;8.60;;;8.20;99.90;;;;;;4990526;28;20491;-62
2022/01/29 01:27:38;;;;;;;19.80;7.82;;;8.20;99.90;;;;;;4998047;28;20050;-63
2022/01/29 01:30:04;;;;;;;29.45;7.50;;;8.30;99.90;;;;;;5007175;28;20061;-62
2022/01/29 01:32:30;;;;;;;30.27;8.25;;;8.30;99.90;;;;;;5007993;28;20050;-62
2022/01/29 01:35:06;;;;;;;27.70;9.68;;;8.30;99.90;;;;;;4997495;28;20517;-63
2022/01/29 01:37:38;;;;;;;33.50;9.65;;;8.30;99.90;;;;;;5005393;28;20050;-63
2022/01/29 01:40:04;;;;;;;31.48;11.23;;;8.40;99.90;;;;;;4995019;28;20046;-63
2022/01/29 01:42:29;;;;;;;28.13;9.45;;;8.40;99.90;;;;;;4990321;28;20050;-63
2022/01/29 01:44:56;;;;;;;31.40;9.55;;;8.40;99.90;;;;;;4989803;28;20053;-62
2022/01/29 01:47:22;;;;;;;31.75;9.95;;;8.40;99.90;;;;;;4988149;28;20046;-63
2022/01/29 01:49:48;;;;;;;34.00;11.85;;;8.40;99.90;;;;;;5002513;28;20060;-62
2022/01/29 01:52:14;;;;;;;33.95;9.82;;;8.40;99.90;;;;;;5003207;28;20073;-62
2022/01/29 01:54:40;;;;;;;40.30;10.35;;;8.40;99.90;;;;;;4996835;28;20042;-62
2022/01/29 01:57:06;;;;;;;32.72;11.93;;;8.40;99.90;;;;;;5006091;28;20049;-62
2022/01/29 01:59:33;;;;;;;34.50;10.43;;;8.40;99.90;;;;;;4987696;28;20403;-62
2022/01/29 02:01:59;;;;;;;37.72;10.00;;;8.40;99.90;;;;;;5003195;28;20029;-62
2022/01/29 02:04:25;;;;;;;31.00;10.60;;;8.40;99.90;;;;;;5009218;28;20050;-63
2022/01/29 02:06:51;;;;;;;30.98;11.43;;;8.40;99.90;;;;;;5004840;28;20113;-63
2022/01/29 02:09:19;;;;;;;25.42;9.38;;;8.40;99.90;;;;;;5002369;28;20042;-62
2022/01/29 02:11:56;;;;;;;36.88;11.00;;;8.40;99.90;;;;;;5006577;28;20057;-63
2022/01/29 02:14:27;;;;;;;42.88;11.10;;;8.40;99.90;;;;;;5004227;28;20038;-63
2022/01/29 02:16:53;;;;;;;32.42;10.25;;;8.40;99.90;;;;;;4995446;28;20049;-63
2022/01/29 02:19:18;;;;;;;32.50;9.93;;;8.40;99.90;;;;;;5010855;28;20073;-62
2022/01/29 02:21:44;;;;;;;38.05;10.13;;;8.40;99.90;;;;;;5011250;28;20481;-62
2022/01/29 02:24:09;;;;;;;33.80;10.60;;;8.40;99.90;;;;;;5011962;28;20068;-62
2022/01/29 02:26:35;;;;;;;29.38;11.05;;;8.40;99.90;;;;;;5012633;28;20371;-62
2022/01/29 02:29:01;;;;;;;31.08;10.43;;;8.40;99.90;;;;;;5007474;28;20539;-63
2022/01/29 02:31:26;;;;;;;36.92;12.05;;;8.40;99.90;;;;;;4999362;28;20050;-63
2022/01/29 02:33:52;;;;;;;29.05;10.20;;;8.30;99.90;;;;;;4992663;28;20465;-62
2022/01/29 02:36:18;;;;;;;34.17;11.73;;;8.40;99.90;;;;;;4992116;28;20821;-63
2022/01/29 02:38:44;;;;;;;31.90;11.98;;;8.40;99.90;;;;;;4997070;28;20494;-62
2022/01/29 02:41:09;;;;;;;31.98;11.65;;;8.40;99.90;;;;;;5006017;28;20533;-63
2022/01/29 02:43:48;;;;;;;48.85;12.02;;;8.40;99.90;;;;;;4994008;28;20042;-63
2022/01/29 02:48:42;;;;;;;41.92;11.50;;;8.40;99.90;;;;;;5007609;28;20141;-63
2022/01/29 02:51:07;;;;;;;29.30;11.02;;;8.40;99.90;;;;;;4993601;28;20125;-63
2022/01/29 02:53:33;;;;;;;33.65;10.82;;;8.40;99.90;;;;;;4992194;28;20130;-62
2022/01/29 02:55:59;;;;;;;41.05;12.23;;;8.40;99.90;;;;;;4993576;28;20552;-63
2022/01/29 02:58:25;;;;;;;35.95;11.68;;;8.40;99.90;;;;;;4994324;28;20120;-62
2022/01/29 03:00:50;;;;;;;28.67;10.50;;;8.40;99.90;;;;;;4995986;28;20137;-62
2022/01/29 03:03:16;;;;;;;34.65;10.63;;;8.40;99.90;;;;;;4999714;28;20053;-62
2022/01/29 03:05:41;;;;;;;39.08;11.95;;;8.40;99.90;;;;;;5012047;28;20046;-63
2022/01/29 03:08:07;;;;;;;33.60;11.88;;;8.40;99.90;;;;;;5001469;28;20073;-63
2022/01/29 03:10:33;;;;;;;28.05;11.55;;;8.40;99.90;;;;;;4998627;28;20165;-62
2022/01/29 03:12:58;;;;;;;27.40;10.57;;;8.40;99.90;;;;;;4996003;28;20932;-63
2022/01/29 03:15:24;;;;;;;39.30;13.63;;;8.40;99.90;;;;;;5006367;28;20038;-62
2022/01/29 03:17:49;;;;;;;45.78;14.25;;;8.40;99.90;;;;;;4997323;28;20046;-63
2022/01/29 03:20:15;;;;;;;41.78;11.80;;;8.40;99.90;;;;;;5005946;28;20542;-63
2022/01/29 03:22:41;;;;;;;45.10;12.25;;;8.40;99.90;;;;;;4993174;28;20093;-63
2022/01/29 03:25:06;;;;;;;32.95;13.27;;;8.50;99.90;;;;;;5010682;28;20073;-63
2022/01/29 03:27:32;;;;;;;36.72;11.45;;;8.40;99.90;;;;;;5007579;28;20870;-63
2022/01/29 03:29:58;;;;;;;32.25;12.93;;;8.50;99.90;;;;;;5004472;28;20494;-63
2022/01/29 03:32:23;;;;;;;34.22;12.82;;;8.40;99.90;;;;;;4997990;28;20101;-62
2022/01/29 03:34:49;;;;;;;34.15;12.68;;;8.50;99.90;;;;;;4991333;28;20042;-62
2022/01/29 03:37:15;;;;;;;33.42;12.15;;;8.50;99.90;;;;;;4990906;28;20046;-62
2022/01/29 03:39:42;;;;;;;31.63;14.52;;;8.50;99.90;;;;;;4994358;28;20453;-63
2022/01/29 03:42:10;;;;;;;34.45;12.68;;;8.50;99.90;;;;;;5003718;28;20638;-62
2022/01/29 03:44:35;;;;;;;33.13;12.93;;;8.50;99.90;;;;;;5003508;28;20579;-63
2022/01/29 03:47:01;;;;;;;38.17;15.27;;;8.50;99.90;;;;;;4991185;28;20058;-62
2022/01/29 03:49:27;;;;;;;41.10;15.55;;;8.50;99.90;;;;;;4999881;28;20418;-63
2022/01/29 03:51:52;;;;;;;32.90;14.65;;;8.50;99.90;;;;;;4994595;28;20212;-62
2022/01/29 03:54:18;;;;;;;34.47;13.52;;;8.60;99.90;;;;;;4991323;28;20049;-62
2022/01/29 03:56:43;;;;;;;40.47;12.77;;;8.60;99.90;;;;;;4991622;28;20046;-63
2022/01/29 03:59:09;;;;;;;29.10;12.90;;;8.60;99.90;;;;;;4994301;28;20692;-63
2022/01/29 04:01:34;;;;;;;32.25;13.05;;;8.70;99.90;;;;;;4994736;28;20050;-62
2022/01/29 04:04:00;;;;;;;37.47;14.18;;;8.60;99.90;;;;;;4991426;28;20514;-62
2022/01/29 04:06:26;;;;;;;24.55;13.30;;;8.60;99.90;;;;;;4997163;28;20127;-62
2022/01/29 04:08:52;;;;;;;39.95;15.82;;;8.60;99.90;;;;;;4990474;28;20051;-63
2022/01/29 04:11:18;;;;;;;31.17;13.40;;;8.60;99.90;;;;;;4991451;28;20172;-62
2022/01/29 04:13:47;;;;;;;37.38;12.77;;;8.60;99.90;;;;;;4992266;28;20473;-62
2022/01/29 04:16:14;;;;;;;39.08;13.98;;;8.70;99.90;;;;;;4990972;28;20046;-63
2022/01/29 04:18:40;;;;;;;31.65;13.10;;;8.70;99.90;;;;;;4994742;28;20072;-63
2022/01/29 04:21:06;;;;;;;30.02;13.80;;;8.70;99.90;;;;;;4998424;28;20038;-63
2022/01/29 04:23:33;;;;;;;28.02;13.38;;;8.70;99.90;;;;;;4996239;28;20048;-62
2022/01/29 04:26:00;;;;;;;28.85;13.23;;;8.70;99.90;;;;;;4992189;28;20162;-63
2022/01/29 04:28:31;;;;;;;33.42;13.00;;;8.70;99.90;;;;;;4992041;28;20109;-63
2022/01/29 04:31:05;;;;;;;32.58;12.73;;;8.70;99.90;;;;;;5007792;28;20046;-62
2022/01/29 04:33:31;;;;;;;28.52;13.93;;;8.70;99.90;;;;;;4998471;28;20050;-63
2022/01/29 04:36:02;;;;;;;36.30;15.10;;;8.70;99.90;;;;;;4997252;28;20042;-63
2022/01/29 04:38:29;;;;;;;36.65;14.48;;;8.70;99.90;;;;;;4993179;28;20061;-63
2022/01/29 04:40:57;;;;;;;29.08;13.82;;;8.70;99.90;;;;;;4998156;28;20038;-63
2022/01/29 04:43:23;;;;;;;33.17;13.30;;;8.70;99.90;;;;;;5009867;28;20441;-63
2022/01/29 04:45:49;;;;;;;28.38;12.60;;;8.70;99.90;;;;;;5009957;28;20050;-62
2022/01/29 04:48:14;;;;;;;30.52;14.00;;;8.70;99.90;;;;;;5008337;28;20073;-63
2022/01/29 04:50:40;;;;;;;33.42;13.07;;;8.70;99.90;;;;;;4999078;28;20135;-62
2022/01/29 04:53:06;;;;;;;33.20;13.07;;;8.70;99.90;;;;;;5009664;28;20136;-63
2022/01/29 04:55:33;;;;;;;28.95;12.13;;;8.70;99.90;;;;;;5001523;28;20046;-62
2022/01/29 04:57:59;;;;;;;29.25;13.45;;;8.70;99.90;;;;;;4990151;28;20046;-63
2022/01/29 05:00:24;;;;;;;37.20;13.57;;;8.70;99.90;;;;;;4996204;28;20088;-62
2022/01/29 05:02:52;;;;;;;30.80;13.85;;;8.70;99.90;;;;;;4992040;28;20050;-62
2022/01/29 05:05:18;;;;;;;30.27;12.77;;;8.70;99.90;;;;;;4989679;28;20753;-63
2022/01/29 05:07:44;;;;;;;29.70;13.25;;;8.80;99.90;;;;;;5005813;28;20391;-62
2022/01/29 05:10:10;;;;;;;31.73;13.57;;;8.70;99.90;;;;;;4991993;28;20049;-62
2022/01/29 05:13:12;;;;;;;23.23;13.15;;;8.70;99.90;;;;;;4998372;28;20054;-63
2022/01/29 05:15:37;;;;;;;23.73;12.52;;;8.80;99.90;;;;;;4988041;28;20050;-62
2022/01/29 05:29:01;;;;;;;27.55;14.10;;;8.70;99.90;;;;;;4995098;28;20069;-63
2022/01/29 05:31:27;;;;;;;25.80;12.23;;;8.70;99.90;;;;;;4994712;28;20510;-63
2022/01/29 05:33:52;;;;;;;32.00;13.90;;;8.70;99.90;;;;;;4990364;28;20042;-63
2022/01/29 05:36:18;;;;;;;28.23;12.27;;;8.70;99.90;;;;;;4989051;28;20058;-63
2022/01/29 05:38:43;;;;;;;26.42;12.93;;;8.70;99.90;;;;;;4989206;28;20046;-63
2022/01/29 05:41:09;;;;;;;27.63;12.77;;;8.70;99.90;;;;;;4991929;28;20030;-63
2022/01/29 05:43:36;;;;;;;25.65;12.07;;;8.80;99.90;;;;;;4990030;28;20149;-63
2022/01/29 05:46:02;;;;;;;29.08;13.80;;;8.70;99.90;;;;;;4987204;28;20046;-63
2022/01/29 05:48:27;;;;;;;29.08;13.73;;;8.80;99.90;;;;;;4993086;28;20038;-63
2022/01/29 05:50:53;;;;;;;24.70;13.20;;;8.80;99.90;;;;;;4990616;28;20042;-63
2022/01/29 05:53:19;;;;;;;34.42;14.43;;;8.80;99.90;;;;;;4988036;28;20449;-63
2022/01/29 05:55:44;;;;;;;31.38;14.70;;;8.80;99.90;;;;;;4989910;28;20046;-63
2022/01/29 05:58:09;;;;;;;29.73;12.77;;;8.80;99.90;;;;;;4988900;28;20581;-63
2022/01/29 06:00:35;;;;;;;32.90;14.05;;;8.80;99.90;;;;;;4995970;28;20038;-62
2022/01/29 06:03:03;;;;;;;34.70;13.63;;;8.80;99.90;;;;;;4994198;28;20037;-62
2022/01/29 06:05:29;;;;;;;34.67;13.88;;;8.80;99.90;;;;;;5008426;28;20054;-63
2022/01/29 06:07:55;;;;;;;28.02;12.45;;;8.90;99.90;;;;;;5001249;28;20058;-63
2022/01/29 06:10:22;;;;;;;25.33;13.65;;;8.90;99.90;;;;;;4990719;28;20092;-63
2022/01/29 06:13:17;;;;;;;29.65;13.75;;;8.80;99.90;;;;;;4988929;28;20046;-62
2022/01/29 06:15:47;;;;;;;32.35;12.77;;;8.90;99.90;;;;;;4988253;28;20058;-63
2022/01/29 06:18:17;;;;;;;32.95;12.20;;;8.90;99.90;;;;;;4990040;28;20081;-62
2022/01/29 06:20:47;;;;;;;32.65;13.30;;;8.80;99.90;;;;;;4993659;28;20092;-62
2022/01/29 06:23:14;;;;;;;24.88;12.07;;;8.80;99.90;;;;;;4994281;28;20438;-62
2022/01/29 06:25:40;;;;;;;30.30;15.55;;;8.80;99.90;;;;;;5002707;28;20050;-62
2022/01/29 06:28:06;;;;;;;27.50;12.88;;;8.90;99.90;;;;;;4992394;28;20081;-63
2022/01/29 06:30:32;;;;;;;29.05;12.32;;;8.90;99.90;;;;;;5003972;28;20108;-63
2022/01/29 06:33:09;;;;;;;22.02;11.63;;;8.90;99.90;;;;;;4990080;28;20053;-63
2022/01/29 06:35:38;;;;;;;26.27;12.55;;;8.90;99.90;;;;;;4988368;28;20163;-63
2022/01/29 06:38:05;;;;;;;27.92;12.05;;;8.90;99.90;;;;;;4988369;28;20057;-62
2022/01/29 06:40:31;;;;;;;26.75;11.23;;;8.90;99.90;;;;;;4989180;28;20038;-63
2022/01/29 06:42:56;;;;;;;22.95;11.10;;;8.90;99.90;;;;;;4988667;28;20046;-63
2022/01/29 06:45:23;;;;;;;22.58;11.30;;;8.90;99.90;;;;;;4988903;28;20108;-63
2022/01/29 06:47:49;;;;;;;29.40;12.80;;;8.90;99.90;;;;;;4988877;28;20074;-63
2022/01/29 06:50:14;;;;;;;27.52;11.10;;;8.90;99.90;;;;;;4994617;28;20084;-62
2022/01/29 06:52:40;;;;;;;24.42;10.98;;;8.90;99.90;;;;;;4991454;28;20047;-62
2022/01/29 06:55:06;;;;;;;22.92;10.73;;;9.00;99.90;;;;;;4987399;28;20124;-62
2022/01/29 06:57:31;;;;;;;31.33;11.27;;;8.90;99.90;;;;;;4989702;28;20074;-62
2022/01/29 06:59:57;;;;;;;21.17;9.63;;;9.00;99.90;;;;;;5000534;28;20073;-63
2022/01/29 07:02:22;;;;;;;27.58;11.07;;;9.00;99.90;;;;;;5010502;28;20046;-63
2022/01/29 07:04:48;;;;;;;23.60;9.77;;;8.90;99.90;;;;;;5007980;28;20120;-63
2022/01/29 07:07:14;;;;;;;26.75;10.70;;;8.90;99.90;;;;;;4991618;28;20139;-62
2022/01/29 07:09:39;;;;;;;23.13;10.38;;;9.00;99.90;;;;;;5000592;28;20050;-63
2022/01/29 07:12:11;;;;;;;28.38;10.23;;;9.00;99.90;;;;;;5010878;28;20042;-63
2022/01/29 07:14:39;;;;;;;28.05;8.93;;;9.00;99.90;;;;;;5010788;28;20050;-62
2022/01/29 07:17:15;;;;;;;22.17;9.32;;;9.00;99.90;;;;;;4995235;28;20034;-63
2022/01/29 07:19:40;;;;;;;20.13;10.02;;;9.00;99.90;;;;;;5000940;28;20543;-63
2022/01/29 07:22:06;;;;;;;23.88;9.20;;;9.00;99.90;;;;;;5001177;28;20042;-62
2022/01/29 07:24:33;;;;;;;19.85;9.10;;;9.00;99.90;;;;;;5009465;28;20049;-63
2022/01/29 07:26:58;;;;;;;22.70;9.43;;;9.00;99.90;;;;;;4996740;28;20039;-63
2022/01/29 07:29:24;;;;;;;20.50;8.52;;;9.00;99.90;;;;;;4993728;28;20050;-62
2022/01/29 07:31:50;;;;;;;33.92;9.90;;;9.00;99.90;;;;;;4997453;28;20049;-63
2022/01/29 07:34:16;;;;;;;26.50;10.45;;;9.00;99.90;;;;;;4991416;28;20509;-63
2022/01/29 07:36:42;;;;;;;23.65;9.82;;;9.10;99.90;;;;;;5003845;28;20046;-62
2022/01/29 07:39:08;;;;;;;18.95;8.88;;;9.10;99.90;;;;;;4992527;28;20413;-63
2022/01/29 07:41:34;;;;;;;24.50;8.77;;;9.00;99.90;;;;;;4997231;28;20057;-63
2022/01/29 07:44:00;;;;;;;24.05;8.15;;;9.00;99.90;;;;;;5009294;28;20041;-63
2022/01/29 07:46:25;;;;;;;24.00;9.77;;;9.00;99.90;;;;;;5000788;28;20065;-63
2022/01/29 07:48:51;;;;;;;31.80;8.90;;;9.10;99.90;;;;;;4992405;28;20605;-63
2022/01/29 07:51:16;;;;;;;21.73;8.65;;;9.00;99.90;;;;;;4994207;28;20057;-62
2022/01/29 07:53:42;;;;;;;19.10;7.97;;;9.10;99.90;;;;;;5000847;28;20556;-63
2022/01/29 07:56:08;;;;;;;15.35;8.07;;;9.10;99.90;;;;;;5010345;28;20960;-63
2022/01/29 07:58:33;;;;;;;16.15;7.45;;;9.10;99.90;;;;;;5008289;28;20056;-63
2022/01/29 08:00:59;;;;;;;19.80;7.80;;;9.10;99.90;;;;;;4999569;28;20057;-63
2022/01/29 08:03:24;;;;;;;19.30;6.75;;;9.10;99.90;;;;;;4991452;28;20050;-62
2022/01/29 08:05:50;;;;;;;20.45;7.63;;;9.10;99.90;;;;;;4990056;28;20046;-63
2022/01/29 08:08:15;;;;;;;16.08;8.57;;;9.10;99.90;;;;;;5000334;28;20533;-63
2022/01/29 08:10:41;;;;;;;18.38;7.72;;;9.10;99.90;;;;;;4989894;28;20042;-63
2022/01/29 08:13:07;;;;;;;27.23;9.68;;;9.20;99.90;;;;;;4991336;28;20053;-62
2022/01/29 08:15:32;;;;;;;24.30;8.57;;;9.20;99.90;;;;;;4998222;28;20042;-62
2022/01/29 08:17:58;;;;;;;14.48;7.05;;;9.20;99.90;;;;;;4989238;28;20383;-63
2022/01/29 08:20:23;;;;;;;13.35;6.35;;;9.20;99.90;;;;;;4990562;28;20042;-63
2022/01/29 08:22:49;;;;;;;17.35;6.00;;;9.20;99.90;;;;;;5002788;28;20054;-62
2022/01/29 08:25:15;;;;;;;13.90;6.60;;;9.30;99.90;;;;;;5001766;28;20460;-62
2022/01/29 08:27:41;;;;;;;14.25;6.35;;;9.30;99.90;;;;;;5010232;28;20394;-63
2022/01/29 08:30:07;;;;;;;16.73;6.22;;;9.30;99.90;;;;;;4996032;28;20132;-62
2022/01/29 08:32:32;;;;;;;19.73;6.18;;;9.30;99.90;;;;;;4990698;28;20050;-63
2022/01/29 08:34:58;;;;;;;18.25;6.72;;;9.40;99.90;;;;;;4989895;28;20050;-63
2022/01/29 08:37:24;;;;;;;18.15;6.15;;;9.40;99.90;;;;;;4989331;28;20046;-63
2022/01/29 08:39:49;;;;;;;18.88;5.82;;;9.40;99.90;;;;;;4989462;28;20140;-63
2022/01/29 08:42:15;;;;;;;18.65;6.40;;;9.40;99.90;;;;;;5007342;28;20081;-63
2022/01/29 08:44:42;;;;;;;20.85;6.15;;;9.40;99.90;;;;;;5003294;28;20653;-62
2022/01/29 08:47:07;;;;;;;12.20;5.78;;;9.40;99.90;;;;;;5006251;28;20046;-63
2022/01/29 08:49:33;;;;;;;15.43;6.13;;;9.40;99.90;;;;;;5009170;28;20092;-63
2022/01/29 08:51:59;;;;;;;16.25;5.97;;;9.40;99.90;;;;;;4998053;28;20046;-63
2022/01/29 08:54:24;;;;;;;18.65;5.80;;;9.40;99.90;;;;;;4989805;28;20482;-63
2022/01/29 08:56:50;;;;;;;12.18;5.95;;;9.50;99.90;;;;;;4993495;28;20054;-63
2022/01/29 08:59:15;;;;;;;13.93;5.05;;;9.50;99.90;;;;;;5002664;28;20038;-63
2022/01/29 09:01:41;;;;;;;13.85;5.70;;;9.50;99.90;;;;;;5009009;28;20111;-63
2022/01/29 09:04:07;;;;;;;17.25;4.97;;;9.50;99.90;;;;;;5009240;28;20089;-63
2022/01/29 09:06:33;;;;;;;12.32;5.13;;;9.60;99.90;;;;;;4994169;28;20132;-63
2022/01/29 09:08:59;;;;;;;15.55;5.10;;;9.60;99.90;;;;;;4991194;28;20137;-63
2022/01/29 09:11:24;;;;;;;16.25;5.05;;;9.60;99.90;;;;;;4999514;28;20123;-63
2022/01/29 09:13:50;;;;;;;16.55;4.38;;;9.60;99.90;;;;;;4996797;28;20049;-63
2022/01/29 09:16:15;;;;;;;12.65;4.70;;;9.60;99.90;;;;;;4995975;28;20045;-63
2022/01/29 09:18:41;;;;;;;13.88;4.65;;;9.60;99.90;;;;;;5002135;28;20050;-63
2022/01/29 09:21:06;;;;;;;19.05;4.30;;;9.60;99.90;;;;;;4989489;28;20096;-63
2022/01/29 09:23:32;;;;;;;16.05;5.70;;;9.60;99.90;;;;;;4996256;28;20383;-63
2022/01/29 09:25:57;;;;;;;14.23;4.55;;;9.60;99.90;;;;;;5009330;28;20550;-63
2022/01/29 09:28:24;;;;;;;11.73;3.53;;;9.70;99.90;;;;;;4992272;28;20081;-63
2022/01/29 09:30:50;;;;;;;14.75;3.78;;;9.70;99.90;;;;;;4998754;28;20049;-63
2022/01/29 09:33:17;;;;;;;20.92;4.68;;;9.70;99.90;;;;;;5007360;28;20530;-63
2022/01/29 09:35:43;;;;;;;14.38;4.22;;;9.70;99.90;;;;;;4988145;28;20042;-63
2022/01/29 09:38:11;;;;;;;23.90;4.95;;;9.80;99.90;;;;;;4988291;28;20514;-63
2022/01/29 09:40:37;;;;;;;15.93;3.53;;;9.80;99.90;;;;;;4994931;28;20046;-63
2022/01/29 09:43:07;;;;;;;18.00;4.38;;;9.80;99.90;;;;;;5008503;28;20045;-63
2022/01/29 09:45:33;;;;;;;14.85;2.83;;;9.80;99.90;;;;;;5008782;28;20042;-63
2022/01/29 09:48:02;;;;;;;18.92;3.58;;;9.80;99.90;;;;;;5006840;28;20068;-63
2022/01/29 09:50:30;;;;;;;13.88;3.72;;;9.90;99.90;;;;;;5002323;28;20046;-62
2022/01/29 09:52:56;;;;;;;18.58;3.53;;;9.90;99.90;;;;;;4988335;28;20042;-63
2022/01/29 09:55:22;;;;;;;21.33;4.18;;;9.90;99.90;;;;;;4992506;28;20058;-63
2022/01/29 09:57:48;;;;;;;14.70;3.45;;;9.90;99.90;;;;;;4990458;28;20500;-63
2022/01/29 10:00:14;;;;;;;11.40;3.20;;;9.90;99.90;;;;;;5001071;28;20057;-63
2022/01/29 10:02:39;;;;;;;11.55;3.50;;;10.00;99.90;;;;;;4993440;28;20129;-63
2022/01/29 10:05:05;;;;;;;13.52;3.15;;;10.00;99.90;;;;;;4994692;28;20133;-63
2022/01/29 10:07:32;;;;;;;16.75;3.08;;;10.00;99.90;;;;;;4997358;28;20046;-63
2022/01/29 10:10:00;;;;;;;18.33;3.58;;;10.10;99.90;;;;;;5008777;28;20096;-63
2022/01/29 10:12:28;;;;;;;18.42;4.70;;;10.10;99.90;;;;;;5006228;28;20053;-63
2022/01/29 10:15:05;;;;;;;21.52;4.18;;;10.10;99.90;;;;;;4999709;28;20506;-63
2022/01/29 10:17:43;;;;;;;12.82;3.00;;;10.10;99.90;;;;;;4991767;28;20054;-63
2022/01/29 10:20:18;;;;;;;15.68;4.78;;;10.20;99.90;;;;;;5004581;28;20406;-63
2022/01/29 10:22:46;;;;;;;17.67;3.15;;;10.20;99.90;;;;;;4990612;28;20515;-63
2022/01/29 10:25:19;;;;;;;25.35;4.95;;;10.20;99.90;;;;;;5008350;28;20045;-63
2022/01/29 10:28:13;;;;;;;23.73;4.03;;;10.20;99.90;;;;;;4999046;28;20058;-63
2022/01/29 10:30:47;;;;;;;14.68;3.25;;;10.20;99.90;;;;;;5005084;28;20061;-62
2022/01/29 10:33:30;;;;;;;23.20;6.47;;;10.20;99.90;;;;;;5007366;28;20042;-61
2022/01/29 10:36:04;;;;;;;16.27;3.75;;;10.20;99.90;;;;;;5006413;28;20053;-62
2022/01/29 10:38:46;;;;;;;15.70;4.13;;;10.20;99.90;;;;;;5011794;28;20042;-61
2022/01/29 10:41:22;;;;;;;26.13;4.13;;;10.20;99.90;;;;;;5009562;28;20053;-62
2022/01/29 10:44:14;;;;;;;13.48;2.70;;;10.20;99.90;;;;;;5009599;28;20125;-62
2022/01/29 10:46:42;;;;;;;15.32;3.28;;;10.20;99.90;;;;;;5006152;28;20123;-62
2022/01/29 10:49:14;;;;;;;13.60;3.55;;;10.20;99.90;;;;;;5011001;28;20053;-62
2022/01/29 10:51:40;;;;;;;22.73;3.70;;;10.20;99.90;;;;;;5007685;28;20050;-62
2022/01/29 10:54:20;;;;;;;19.00;3.10;;;10.20;99.90;;;;;;5007456;28;20053;-62
2022/01/29 10:56:55;;;;;;;12.98;3.15;;;10.20;99.90;;;;;;5005842;28;20180;-63
2022/01/29 10:59:21;;;;;;;13.43;2.63;;;10.20;99.90;;;;;;5012617;28;20509;-63
2022/01/29 11:01:58;;;;;;;14.65;3.22;;;10.20;99.90;;;;;;5010064;28;20037;-63
2022/01/29 11:04:26;;;;;;;12.05;2.72;;;10.20;99.90;;;;;;5002020;28;20078;-63
2022/01/29 11:06:53;;;;;;;14.27;5.03;;;10.20;99.90;;;;;;4994024;28;20042;-63
2022/01/29 11:09:20;;;;;;;19.63;3.78;;;10.20;99.90;;;;;;4994853;28;20050;-63
2022/01/29 11:11:47;;;;;;;14.27;3.08;;;10.30;99.90;;;;;;4994107;28;20057;-63
2022/01/29 11:14:15;;;;;;;16.02;3.58;;;10.30;99.90;;;;;;4993308;28;20049;-63
2022/01/29 11:16:43;;;;;;;13.63;2.58;;;10.30;99.90;;;;;;4994909;28;20125;-63
2022/01/29 11:19:08;;;;;;;15.35;3.33;;;10.40;99.90;;;;;;4992354;28;20118;-63
2022/01/29 11:21:36;;;;;;;12.77;2.75;;;10.40;99.90;;;;;;4993728;28;20126;-63
2022/01/29 11:24:03;;;;;;;17.10;4.68;;;10.50;99.90;;;;;;5004346;28;20049;-63
2022/01/29 11:26:32;;;;;;;15.43;2.83;;;10.50;99.90;;;;;;5008848;28;20046;-63
2022/01/29 11:29:35;;;;;;;17.92;3.60;;;10.50;99.90;;;;;;4992759;28;20070;-63
2022/01/29 11:32:23;;;;;;;18.33;4.38;;;10.50;99.90;;;;;;5008959;28;20045;-63
2022/01/29 11:35:00;;;;;;;15.20;3.08;;;10.60;99.90;;;;;;5001066;28;20058;-63
2022/01/29 11:37:39;;;;;;;17.45;3.35;;;10.60;99.90;;;;;;4994149;28;20046;-63
2022/01/29 11:40:17;;;;;;;11.48;2.65;;;10.60;99.90;;;;;;4992982;28;20050;-63
2022/01/29 11:43:01;;;;;;;15.20;3.35;;;10.50;99.90;;;;;;4999796;28;20049;-63
2022/01/29 11:45:42;;;;;;;14.25;2.75;;;10.60;99.90;;;;;;5005180;28;20085;-63
2022/01/29 11:48:29;;;;;;;17.80;3.67;;;10.60;99.90;;;;;;5009690;28;20046;-63
2022/01/29 11:51:09;;;;;;;16.85;3.75;;;10.60;99.90;;;;;;4993477;28;20168;-63
2022/01/29 11:53:44;;;;;;;15.88;2.97;;;10.70;99.90;;;;;;5009158;28;20053;-63
2022/01/29 11:56:30;;;;;;;11.48;2.60;;;10.80;99.90;;;;;;5011985;28;20046;-63
2022/01/29 11:59:23;;;;;;;11.85;2.90;;;10.80;99.90;;;;;;5009469;28;20057;-63
2022/01/29 12:01:52;;;;;;;20.83;3.80;;;10.70;99.90;;;;;;4992922;28;20062;-63
2022/01/29 12:04:20;;;;;;;21.48;3.83;;;10.80;99.90;;;;;;5003562;28;20046;-63
2022/01/29 12:07:46;;;;;;;14.38;4.50;;;11.00;99.90;;;;;;5001490;28;20058;-63
2022/01/29 12:10:02;;;;;;;20.25;4.22;;;11.00;99.90;;;;;;4984472;28;20085;-63
2022/01/29 12:12:29;;;;;;;19.40;3.35;;;11.00;99.90;;;;;;4992460;28;20058;-63
2022/01/29 12:15:10;;;;;;;20.00;3.78;;;11.00;99.90;;;;;;5003728;28;20049;-63
2022/01/29 12:17:44;;;;;;;28.08;4.10;;;11.40;99.90;;;;;;5012547;28;20038;-63
2022/01/29 12:20:12;;;;;;;;;;;11.30;99.90;;;;;;5001387;28;20517;-63
2022/01/29 12:22:39;;;;;;;21.20;4.47;;;11.40;99.90;;;;;;5002297;28;20027;-63
2022/01/29 12:25:10;;;;;;;20.33;4.85;;;11.40;99.90;;;;;;5011065;28;20045;-63
2022/01/29 12:27:55;;;;;;;18.27;5.00;;;11.40;99.90;;;;;;5012026;28;20096;-63
2022/01/29 12:30:30;;;;;;;17.50;2.70;;;11.30;99.90;;;;;;5015831;28;20173;-63
2022/01/29 12:33:04;;;;;;;24.55;4.00;;;11.30;99.90;;;;;;4994473;28;20129;-63
2022/01/29 12:35:37;;;;;;;23.20;4.43;;;11.20;99.90;;;;;;4996416;28;20050;-64
2022/01/29 12:38:11;;;;;;;21.95;3.80;;;11.00;99.90;;;;;;5005530;28;20046;-63
2022/01/29 12:40:49;;;;;;;22.23;4.35;;;11.00;99.90;;;;;;5009441;28;20053;-63
2022/01/29 12:44:00;;;;;;;19.27;4.22;;;10.90;99.90;;;;;;5002680;28;20042;-64
2022/01/29 12:46:30;;;;;;;13.82;3.75;;;10.80;99.90;;;;;;5001252;28;20054;-64
2022/01/29 12:49:00;;;;;;;25.80;3.63;;;10.80;99.90;;;;;;5007931;28;20441;-64
2022/01/29 12:51:26;;;;;;;20.02;3.58;;;10.70;99.90;;;;;;5003076;28;20108;-64
2022/01/29 12:53:59;;;;;;;15.15;3.22;;;10.80;99.90;;;;;;4994408;28;20495;-65
2022/01/29 12:56:32;;;;;;;;;;;10.70;99.90;;;;;;4992279;28;20049;-64
2022/01/29 12:59:00;;;;;;;26.23;5.30;;;10.70;99.90;;;;;;4994705;28;19931;-64